sensor_id;sensor_type;location;lat;lon;timestamp;pressure;altitude;pressure_sealevel;temperature;humidity
32083;BME280;18597;48.328;7.932;2023-05-20T00:02:14;99580.06;;;11.27;100.00
32083;BME280;18597;48.328;7.932;2023-05-20T00:04:40;99581.63;;;11.29;100.00
32083;BME280;18597;48.328;7.932;2023-05-20T00:07:06;99581.50;;;11.40;100.00
32083;BME280;18597;48.328;7.932;2023-05-20T00:09:32;99577.28;;;11.38;100.00
32083;BME280;18597;48.328;7.932;2023-05-20T00:11:58;99578.66;;;11.32;100.00
32083;BME280;18597;48.328;7.932;2023-05-20T00:14:24;99577.25;;;11.28;100.00
32083;BME280;18597;48.328;7.932;2023-05-20T00:16:49;99586.13;;;11.29;100.00
32083;BME280;18597;48.328;7.932;2023-05-20T00:19:15;99588.78;;;11.19;100.00
32083;BME280;18597;48.328;7.932;2023-05-20T00:21:41;99580.03;;;11.17;100.00
32083;BME280;18597;48.328;7.932;2023-05-20T00:24:07;99570.47;;;11.15;100.00
32083;BME280;18597;48.328;7.932;2023-05-20T00:26:33;99571.06;;;11.28;100.00
32083;BME280;18597;48.328;7.932;2023-05-20T00:28:58;99564.91;;;11.47;100.00
32083;BME280;18597;48.328;7.932;2023-05-20T00:31:24;99570.53;;;11.34;100.00
32083;BME280;18597;48.328;7.932;2023-05-20T00:33:50;99569.09;;;11.30;100.00
32083;BME280;18597;48.328;7.932;2023-05-20T00:36:16;99573.47;;;11.40;100.00
32083;BME280;18597;48.328;7.932;2023-05-20T00:38:42;99574.59;;;11.48;100.00
32083;BME280;18597;48.328;7.932;2023-05-20T00:41:07;99569.94;;;11.40;100.00
32083;BME280;18597;48.328;7.932;2023-05-20T00:43:33;99569.25;;;11.38;100.00
32083;BME280;18597;48.328;7.932;2023-05-20T00:45:59;99566.31;;;11.41;100.00
32083;BME280;18597;48.328;7.932;2023-05-20T00:48:31;99563.19;;;11.26;100.00
32083;BME280;18597;48.328;7.932;2023-05-20T00:51:01;99562.75;;;11.40;100.00
32083;BME280;18597;48.328;7.932;2023-05-20T00:53:27;99555.88;;;11.28;100.00
32083;BME280;18597;48.328;7.932;2023-05-20T00:55:53;99562.34;;;11.35;100.00
32083;BME280;18597;48.328;7.932;2023-05-20T00:58:19;99558.53;;;11.28;100.00
32083;BME280;18597;48.328;7.932;2023-05-20T01:00:45;99555.16;;;11.26;100.00
32083;BME280;18597;48.328;7.932;2023-05-20T01:03:11;99558.38;;;11.20;100.00
32083;BME280;18597;48.328;7.932;2023-05-20T01:05:37;99546.53;;;11.13;100.00
32083;BME280;18597;48.328;7.932;2023-05-20T01:08:03;99546.25;;;11.16;100.00
32083;BME280;18597;48.328;7.932;2023-05-20T01:10:29;99549.38;;;11.21;100.00
32083;BME280;18597;48.328;7.932;2023-05-20T01:13:00;99545.31;;;11.27;100.00
32083;BME280;18597;48.328;7.932;2023-05-20T01:15:29;99551.81;;;11.34;100.00
32083;BME280;18597;48.328;7.932;2023-05-20T01:18:00;99538.44;;;11.34;100.00
32083;BME280;18597;48.328;7.932;2023-05-20T01:20:27;99549.97;;;11.34;100.00
32083;BME280;18597;48.328;7.932;2023-05-20T01:22:57;99542.34;;;11.30;100.00
32083;BME280;18597;48.328;7.932;2023-05-20T01:25:23;99533.63;;;11.28;100.00
32083;BME280;18597;48.328;7.932;2023-05-20T01:27:51;99536.44;;;11.26;100.00
32083;BME280;18597;48.328;7.932;2023-05-20T01:30:18;99530.22;;;11.26;100.00
32083;BME280;18597;48.328;7.932;2023-05-20T01:32:51;99528.53;;;11.25;100.00
32083;BME280;18597;48.328;7.932;2023-05-20T01:35:21;99530.50;;;11.23;100.00
32083;BME280;18597;48.328;7.932;2023-05-20T01:37:47;99528.97;;;11.20;100.00
32083;BME280;18597;48.328;7.932;2023-05-20T01:40:15;99526.28;;;11.20;100.00
32083;BME280;18597;48.328;7.932;2023-05-20T01:42:43;99519.81;;;11.23;100.00
32083;BME280;18597;48.328;7.932;2023-05-20T01:45:11;99516.16;;;11.24;100.00
32083;BME280;18597;48.328;7.932;2023-05-20T01:47:36;99526.00;;;11.23;100.00
32083;BME280;18597;48.328;7.932;2023-05-20T01:50:02;99522.63;;;11.21;100.00
32083;BME280;18597;48.328;7.932;2023-05-20T01:52:28;99518.69;;;11.25;100.00
32083;BME280;18597;48.328;7.932;2023-05-20T01:54:56;99520.25;;;11.47;100.00
32083;BME280;18597;48.328;7.932;2023-05-20T01:57:22;99513.06;;;11.28;100.00
32083;BME280;18597;48.328;7.932;2023-05-20T01:59:49;99513.22;;;11.27;100.00
32083;BME280;18597;48.328;7.932;2023-05-20T02:02:15;99513.34;;;11.25;100.00
32083;BME280;18597;48.328;7.932;2023-05-20T02:04:44;99515.06;;;11.36;100.00
32083;BME280;18597;48.328;7.932;2023-05-20T02:07:15;99506.03;;;11.27;100.00
32083;BME280;18597;48.328;7.932;2023-05-20T02:09:41;99507.88;;;11.27;100.00
32083;BME280;18597;48.328;7.932;2023-05-20T02:12:07;99506.34;;;11.44;100.00
32083;BME280;18597;48.328;7.932;2023-05-20T02:14:33;99501.81;;;11.44;100.00
32083;BME280;18597;48.328;7.932;2023-05-20T02:16:59;99500.44;;;11.50;100.00
32083;BME280;18597;48.328;7.932;2023-05-20T02:19:25;99503.91;;;11.40;100.00
32083;BME280;18597;48.328;7.932;2023-05-20T02:21:50;99508.56;;;11.19;100.00
32083;BME280;18597;48.328;7.932;2023-05-20T02:24:16;99507.97;;;11.16;100.00
32083;BME280;18597;48.328;7.932;2023-05-20T02:26:44;99506.56;;;11.11;100.00
32083;BME280;18597;48.328;7.932;2023-05-20T02:29:10;99502.91;;;11.13;100.00
32083;BME280;18597;48.328;7.932;2023-05-20T02:31:36;99499.50;;;11.10;100.00
32083;BME280;18597;48.328;7.932;2023-05-20T02:34:02;99499.41;;;11.12;100.00
32083;BME280;18597;48.328;7.932;2023-05-20T02:36:28;99505.75;;;11.21;100.00
32083;BME280;18597;48.328;7.932;2023-05-20T02:38:56;99507.97;;;11.25;100.00
32083;BME280;18597;48.328;7.932;2023-05-20T02:41:22;99515.31;;;11.23;100.00
32083;BME280;18597;48.328;7.932;2023-05-20T02:43:48;99501.25;;;11.21;100.00
32083;BME280;18597;48.328;7.932;2023-05-20T02:46:14;99509.66;;;11.17;100.00
32083;BME280;18597;48.328;7.932;2023-05-20T02:48:41;99520.50;;;11.15;100.00
32083;BME280;18597;48.328;7.932;2023-05-20T02:51:07;99512.53;;;11.34;100.00
32083;BME280;18597;48.328;7.932;2023-05-20T02:53:33;99519.66;;;11.24;100.00
32083;BME280;18597;48.328;7.932;2023-05-20T02:55:58;99514.75;;;11.29;100.00
32083;BME280;18597;48.328;7.932;2023-05-20T02:58:24;99521.78;;;11.21;100.00
32083;BME280;18597;48.328;7.932;2023-05-20T03:00:51;99513.03;;;11.09;100.00
32083;BME280;18597;48.328;7.932;2023-05-20T03:03:17;99514.16;;;11.16;100.00
32083;BME280;18597;48.328;7.932;2023-05-20T03:05:43;99515.00;;;11.17;100.00
32083;BME280;18597;48.328;7.932;2023-05-20T03:08:11;99501.94;;;11.23;100.00
32083;BME280;18597;48.328;7.932;2023-05-20T03:10:38;99499.41;;;11.12;100.00
32083;BME280;18597;48.328;7.932;2023-05-20T03:13:05;99497.88;;;11.19;100.00
32083;BME280;18597;48.328;7.932;2023-05-20T03:15:34;99496.16;;;11.18;100.00
32083;BME280;18597;48.328;7.932;2023-05-20T03:18:00;99507.44;;;11.22;100.00
32083;BME280;18597;48.328;7.932;2023-05-20T03:20:27;99499.41;;;11.12;100.00
32083;BME280;18597;48.328;7.932;2023-05-20T03:22:54;99504.16;;;11.08;100.00
32083;BME280;18597;48.328;7.932;2023-05-20T03:25:21;99496.16;;;11.18;100.00
32083;BME280;18597;48.328;7.932;2023-05-20T03:27:47;99490.53;;;11.21;100.00
32083;BME280;18597;48.328;7.932;2023-05-20T03:30:13;99481.97;;;11.27;100.00
32083;BME280;18597;48.328;7.932;2023-05-20T03:32:39;99484.78;;;11.35;100.00
32083;BME280;18597;48.328;7.932;2023-05-20T03:35:06;99482.66;;;11.29;100.00
32083;BME280;18597;48.328;7.932;2023-05-20T03:37:33;99486.03;;;11.31;100.00
32083;BME280;18597;48.328;7.932;2023-05-20T03:39:58;99479.72;;;11.32;100.00
32083;BME280;18597;48.328;7.932;2023-05-20T03:42:24;99482.97;;;11.36;100.00
32083;BME280;18597;48.328;7.932;2023-05-20T03:44:50;99481.28;;;11.45;100.00
32083;BME280;18597;48.328;7.932;2023-05-20T03:47:16;99481.81;;;11.48;100.00
32083;BME280;18597;48.328;7.932;2023-05-20T03:49:41;99489.00;;;11.48;100.00
32083;BME280;18597;48.328;7.932;2023-05-20T03:52:07;99483.66;;;11.48;100.00
32083;BME280;18597;48.328;7.932;2023-05-20T03:54:33;99484.94;;;11.53;100.00
32083;BME280;18597;48.328;7.932;2023-05-20T03:57:00;99483.38;;;11.51;100.00
32083;BME280;18597;48.328;7.932;2023-05-20T03:59:28;99485.91;;;11.52;100.00
32083;BME280;18597;48.328;7.932;2023-05-20T04:01:54;99479.72;;;11.61;100.00
32083;BME280;18597;48.328;7.932;2023-05-20T04:04:21;99484.38;;;11.59;100.00
32083;BME280;18597;48.328;7.932;2023-05-20T04:06:47;99470.00;;;11.60;100.00
32083;BME280;18597;48.328;7.932;2023-05-20T04:09:13;99475.34;;;11.70;100.00
32083;BME280;18597;48.328;7.932;2023-05-20T04:11:39;99475.22;;;11.72;100.00
32083;BME280;18597;48.328;7.932;2023-05-20T04:14:05;99477.75;;;11.92;100.00
32083;BME280;18597;48.328;7.932;2023-05-20T04:16:31;99467.72;;;12.04;100.00
32083;BME280;18597;48.328;7.932;2023-05-20T04:18:57;99472.53;;;11.91;100.00
32083;BME280;18597;48.328;7.932;2023-05-20T04:21:23;99467.59;;;11.96;100.00
32083;BME280;18597;48.328;7.932;2023-05-20T04:23:49;99473.66;;;11.98;100.00
32083;BME280;18597;48.328;7.932;2023-05-20T04:26:15;99471.25;;;12.05;100.00
32083;BME280;18597;48.328;7.932;2023-05-20T04:28:41;99470.38;;;12.14;100.00
32083;BME280;18597;48.328;7.932;2023-05-20T04:31:07;99459.78;;;12.22;100.00
32083;BME280;18597;48.328;7.932;2023-05-20T04:33:33;99468.66;;;12.32;100.00
32083;BME280;18597;48.328;7.932;2023-05-20T04:36:05;99463.66;;;12.37;100.00
32083;BME280;18597;48.328;7.932;2023-05-20T04:38:31;99463.09;;;12.43;100.00
32083;BME280;18597;48.328;7.932;2023-05-20T04:40:58;99464.72;;;12.54;100.00
32083;BME280;18597;48.328;7.932;2023-05-20T04:43:25;99461.72;;;12.67;100.00
32083;BME280;18597;48.328;7.932;2023-05-20T04:45:56;99473.94;;;12.79;100.00
32083;BME280;18597;48.328;7.932;2023-05-20T04:48:22;99468.50;;;12.89;100.00
32083;BME280;18597;48.328;7.932;2023-05-20T04:50:49;99470.13;;;12.99;100.00
32083;BME280;18597;48.328;7.932;2023-05-20T04:53:17;99481.66;;;13.10;100.00
32083;BME280;18597;48.328;7.932;2023-05-20T04:55:44;99478.66;;;13.13;100.00
32083;BME280;18597;48.328;7.932;2023-05-20T04:58:11;99476.50;;;13.26;100.00
32083;BME280;18597;48.328;7.932;2023-05-20T05:00:43;99471.88;;;13.36;100.00
32083;BME280;18597;48.328;7.932;2023-05-20T05:03:09;99475.50;;;13.45;100.00
32083;BME280;18597;48.328;7.932;2023-05-20T05:05:38;99470.16;;;13.63;100.00
32083;BME280;18597;48.328;7.932;2023-05-20T05:08:05;99463.06;;;13.79;100.00
32083;BME280;18597;48.328;7.932;2023-05-20T05:10:31;99467.25;;;14.00;100.00
32083;BME280;18597;48.328;7.932;2023-05-20T05:12:57;99467.03;;;14.19;100.00
32083;BME280;18597;48.328;7.932;2023-05-20T05:15:24;99468.84;;;14.36;100.00
32083;BME280;18597;48.328;7.932;2023-05-20T05:17:50;99469.81;;;14.61;98.76
32083;BME280;18597;48.328;7.932;2023-05-20T05:20:16;99465.16;;;14.71;97.28
32083;BME280;18597;48.328;7.932;2023-05-20T05:22:43;99470.94;;;14.85;96.13
32083;BME280;18597;48.328;7.932;2023-05-20T05:25:10;99461.72;;;15.04;95.13
32083;BME280;18597;48.328;7.932;2023-05-20T05:27:37;99466.69;;;15.41;92.33
32083;BME280;18597;48.328;7.932;2023-05-20T05:30:05;99457.78;;;16.30;86.70
32083;BME280;18597;48.328;7.932;2023-05-20T05:32:31;99454.47;;;19.88;61.94
32083;BME280;18597;48.328;7.932;2023-05-20T05:34:57;99451.13;;;24.23;45.25
32083;BME280;18597;48.328;7.932;2023-05-20T05:37:23;99441.59;;;27.70;37.05
32083;BME280;18597;48.328;7.932;2023-05-20T05:39:49;99443.31;;;30.07;32.23
32083;BME280;18597;48.328;7.932;2023-05-20T05:42:15;99435.38;;;31.88;29.04
32083;BME280;18597;48.328;7.932;2023-05-20T05:44:41;99428.34;;;33.47;26.79
32083;BME280;18597;48.328;7.932;2023-05-20T05:47:07;99427.53;;;34.20;25.50
32083;BME280;18597;48.328;7.932;2023-05-20T05:49:33;99419.69;;;35.04;24.22
32083;BME280;18597;48.328;7.932;2023-05-20T05:51:59;99421.72;;;35.41;23.65
32083;BME280;18597;48.328;7.932;2023-05-20T05:54:25;99424.25;;;35.94;22.58
32083;BME280;18597;48.328;7.932;2023-05-20T05:56:52;99424.81;;;36.84;22.07
32083;BME280;18597;48.328;7.932;2023-05-20T05:59:18;99419.22;;;37.75;21.45
32083;BME280;18597;48.328;7.932;2023-05-20T06:01:44;99421.16;;;38.73;20.11
32083;BME280;18597;48.328;7.932;2023-05-20T06:04:10;99409.81;;;39.35;18.83
32083;BME280;18597;48.328;7.932;2023-05-20T06:06:36;99404.09;;;39.66;18.80
32083;BME280;18597;48.328;7.932;2023-05-20T06:09:03;99406.72;;;40.06;18.47
32083;BME280;18597;48.328;7.932;2023-05-20T06:11:29;99401.78;;;39.94;18.61
32083;BME280;18597;48.328;7.932;2023-05-20T06:13:54;99398.31;;;40.61;18.02
32083;BME280;18597;48.328;7.932;2023-05-20T06:16:20;99397.03;;;41.18;17.54
32083;BME280;18597;48.328;7.932;2023-05-20T06:18:47;99397.50;;;41.49;16.93
32083;BME280;18597;48.328;7.932;2023-05-20T06:21:15;99397.78;;;41.69;16.45
32083;BME280;18597;48.328;7.932;2023-05-20T06:23:41;99388.97;;;42.12;16.47
32083;BME280;18597;48.328;7.932;2023-05-20T06:26:07;99392.34;;;42.51;16.17
32083;BME280;18597;48.328;7.932;2023-05-20T06:28:33;99381.31;;;41.88;15.83
32083;BME280;18597;48.328;7.932;2023-05-20T06:30:59;99379.78;;;37.82;19.41
32083;BME280;18597;48.328;7.932;2023-05-20T06:33:26;99378.53;;;34.39;23.13
32083;BME280;18597;48.328;7.932;2023-05-20T06:35:55;99367.66;;;32.11;25.53
32083;BME280;18597;48.328;7.932;2023-05-20T06:38:21;99368.41;;;30.47;27.55
32083;BME280;18597;48.328;7.932;2023-05-20T06:40:48;99380.59;;;28.96;30.19
32083;BME280;18597;48.328;7.932;2023-05-20T06:43:15;99370.50;;;29.07;29.85
32083;BME280;18597;48.328;7.932;2023-05-20T06:45:41;99372.69;;;29.32;29.64
32083;BME280;18597;48.328;7.932;2023-05-20T06:48:07;99379.22;;;29.79;29.64
32083;BME280;18597;48.328;7.932;2023-05-20T06:50:33;99363.97;;;30.04;29.60
32083;BME280;18597;48.328;7.932;2023-05-20T06:52:59;99365.94;;;29.44;30.38
32083;BME280;18597;48.328;7.932;2023-05-20T06:55:25;99365.81;;;29.02;30.81
32083;BME280;18597;48.328;7.932;2023-05-20T06:57:52;99362.56;;;28.06;32.64
32083;BME280;18597;48.328;7.932;2023-05-20T07:00:18;99360.81;;;26.92;34.86
32083;BME280;18597;48.328;7.932;2023-05-20T07:02:44;99366.19;;;25.35;37.06
32083;BME280;18597;48.328;7.932;2023-05-20T07:05:11;99369.28;;;24.60;39.04
32083;BME280;18597;48.328;7.932;2023-05-20T07:07:37;99368.34;;;23.86;40.09
32083;BME280;18597;48.328;7.932;2023-05-20T07:10:04;99367.81;;;23.46;41.31
32083;BME280;18597;48.328;7.932;2023-05-20T07:12:31;99366.34;;;23.43;41.80
32083;BME280;18597;48.328;7.932;2023-05-20T07:14:57;99371.13;;;23.16;42.14
32083;BME280;18597;48.328;7.932;2023-05-20T07:17:24;99362.88;;;22.98;43.58
32083;BME280;18597;48.328;7.932;2023-05-20T07:19:50;99357.19;;;23.63;42.96
32083;BME280;18597;48.328;7.932;2023-05-20T07:22:16;99358.03;;;24.68;40.71
32083;BME280;18597;48.328;7.932;2023-05-20T07:24:41;99363.25;;;24.88;40.47
32083;BME280;18597;48.328;7.932;2023-05-20T07:27:07;99370.09;;;24.60;40.85
32083;BME280;18597;48.328;7.932;2023-05-20T07:29:35;99356.91;;;24.39;41.00
32083;BME280;18597;48.328;7.932;2023-05-20T07:32:02;99360.75;;;24.31;41.96
32083;BME280;18597;48.328;7.932;2023-05-20T07:34:28;99356.34;;;24.30;42.20
32083;BME280;18597;48.328;7.932;2023-05-20T07:36:54;99355.44;;;24.18;42.28
32083;BME280;18597;48.328;7.932;2023-05-20T07:39:21;99351.63;;;24.01;42.84
32083;BME280;18597;48.328;7.932;2023-05-20T07:41:48;99346.84;;;23.96;42.98
32083;BME280;18597;48.328;7.932;2023-05-20T07:44:14;99349.41;;;24.09;42.82
32083;BME280;18597;48.328;7.932;2023-05-20T07:46:40;99351.00;;;24.42;42.54
32083;BME280;18597;48.328;7.932;2023-05-20T07:49:07;99343.91;;;25.01;41.35
32083;BME280;18597;48.328;7.932;2023-05-20T07:51:32;99334.75;;;25.91;39.85
32083;BME280;18597;48.328;7.932;2023-05-20T07:53:58;99323.72;;;26.90;37.95
32083;BME280;18597;48.328;7.932;2023-05-20T07:56:24;99329.81;;;27.20;36.63
32083;BME280;18597;48.328;7.932;2023-05-20T07:58:53;99325.22;;;29.46;33.11
32083;BME280;18597;48.328;7.932;2023-05-20T08:01:20;99312.91;;;30.86;31.12
32083;BME280;18597;48.328;7.932;2023-05-20T08:03:46;99313.78;;;32.03;29.65
32083;BME280;18597;48.328;7.932;2023-05-20T08:06:12;99310.25;;;31.98;29.06
32083;BME280;18597;48.328;7.932;2023-05-20T08:08:38;99305.09;;;32.56;28.59
32083;BME280;18597;48.328;7.932;2023-05-20T08:11:06;99306.78;;;33.80;26.63
32083;BME280;18597;48.328;7.932;2023-05-20T08:13:32;99297.69;;;35.97;23.98
32083;BME280;18597;48.328;7.932;2023-05-20T08:15:58;99288.69;;;39.13;20.18
32083;BME280;18597;48.328;7.932;2023-05-20T08:18:24;99287.91;;;39.94;18.88
32083;BME280;18597;48.328;7.932;2023-05-20T08:20:50;99282.66;;;36.80;21.64
32083;BME280;18597;48.328;7.932;2023-05-20T08:23:16;99292.41;;;35.68;22.17
32083;BME280;18597;48.328;7.932;2023-05-20T08:25:41;99298.38;;;35.04;22.61
32083;BME280;18597;48.328;7.932;2023-05-20T08:28:07;99297.22;;;36.22;21.55
32083;BME280;18597;48.328;7.932;2023-05-20T08:30:33;99287.59;;;35.22;22.42
32083;BME280;18597;48.328;7.932;2023-05-20T08:33:00;99297.56;;;33.16;24.31
32083;BME280;18597;48.328;7.932;2023-05-20T08:35:26;99301.81;;;33.77;24.42
32083;BME280;18597;48.328;7.932;2023-05-20T08:37:53;99289.03;;;34.58;23.10
32083;BME280;18597;48.328;7.932;2023-05-20T08:40:19;99295.34;;;35.57;22.21
32083;BME280;18597;48.328;7.932;2023-05-20T08:42:48;99285.41;;;38.06;19.91
32083;BME280;18597;48.328;7.932;2023-05-20T08:45:18;99283.25;;;39.34;18.88
32083;BME280;18597;48.328;7.932;2023-05-20T08:47:46;99292.56;;;36.73;20.36
32083;BME280;18597;48.328;7.932;2023-05-20T08:50:13;99286.06;;;32.44;25.37
32083;BME280;18597;48.328;7.932;2023-05-20T08:52:43;99293.88;;;33.31;24.85
32083;BME280;18597;48.328;7.932;2023-05-20T08:55:16;99289.66;;;32.99;25.12
32083;BME280;18597;48.328;7.932;2023-05-20T08:57:49;99294.59;;;30.64;27.91
32083;BME280;18597;48.328;7.932;2023-05-20T09:00:16;99298.53;;;27.83;32.01
32083;BME280;18597;48.328;7.932;2023-05-20T09:02:44;99293.47;;;27.75;31.65
32083;BME280;18597;48.328;7.932;2023-05-20T09:05:11;99295.78;;;27.67;31.89
32083;BME280;18597;48.328;7.932;2023-05-20T09:07:36;99298.34;;;26.94;33.66
32083;BME280;18597;48.328;7.932;2023-05-20T09:10:05;99286.47;;;26.37;33.27
32083;BME280;18597;48.328;7.932;2023-05-20T09:12:31;99291.56;;;26.16;34.65
32083;BME280;18597;48.328;7.932;2023-05-20T09:14:57;99298.97;;;26.56;34.31
32083;BME280;18597;48.328;7.932;2023-05-20T09:17:23;99298.69;;;26.69;34.19
32083;BME280;18597;48.328;7.932;2023-05-20T09:19:50;99298.28;;;26.37;35.34
32083;BME280;18597;48.328;7.932;2023-05-20T09:22:26;99293.84;;;26.88;34.09
32083;BME280;18597;48.328;7.932;2023-05-20T09:24:53;99293.66;;;26.26;35.24
32083;BME280;18597;48.328;7.932;2023-05-20T09:27:20;99284.47;;;26.84;34.21
32083;BME280;18597;48.328;7.932;2023-05-20T09:29:47;99286.81;;;27.37;32.86
32083;BME280;18597;48.328;7.932;2023-05-20T09:32:14;99285.09;;;28.04;32.06
32083;BME280;18597;48.328;7.932;2023-05-20T09:34:40;99289.09;;;28.57;31.48
32083;BME280;18597;48.328;7.932;2023-05-20T09:37:09;99281.84;;;28.94;30.47
32083;BME280;18597;48.328;7.932;2023-05-20T09:39:59;99279.59;;;28.91;30.81
32083;BME280;18597;48.328;7.932;2023-05-20T09:42:43;99285.06;;;28.64;31.12
32083;BME280;18597;48.328;7.932;2023-05-20T09:45:12;99283.63;;;28.18;31.79
32083;BME280;18597;48.328;7.932;2023-05-20T09:47:38;99269.94;;;26.83;34.29
32083;BME280;18597;48.328;7.932;2023-05-20T09:50:07;99260.53;;;26.79;34.24
32083;BME280;18597;48.328;7.932;2023-05-20T09:52:36;99263.03;;;26.98;34.13
32083;BME280;18597;48.328;7.932;2023-05-20T09:55:05;99263.16;;;26.74;34.63
32083;BME280;18597;48.328;7.932;2023-05-20T09:57:33;99261.78;;;26.89;34.64
32083;BME280;18597;48.328;7.932;2023-05-20T10:00:01;99256.81;;;26.57;35.26
32083;BME280;18597;48.328;7.932;2023-05-20T10:02:29;99278.06;;;27.07;34.10
32083;BME280;18597;48.328;7.932;2023-05-20T10:04:56;99268.31;;;27.50;33.06
32083;BME280;18597;48.328;7.932;2023-05-20T10:08:09;99263.94;;;25.36;35.99
32083;BME280;18597;48.328;7.932;2023-05-20T10:17:53;99258.31;;;24.29;39.79
32083;BME280;18597;48.328;7.932;2023-05-20T10:20:13;99249.91;;;26.03;36.32
32083;BME280;18597;48.328;7.932;2023-05-20T10:22:38;99251.91;;;26.59;34.54
32083;BME280;18597;48.328;7.932;2023-05-20T10:25:23;99258.06;;;26.38;35.04
32083;BME280;18597;48.328;7.932;2023-05-20T10:27:51;99256.47;;;25.01;37.61
32083;BME280;18597;48.328;7.932;2023-05-20T10:30:20;99246.72;;;25.70;36.17
32083;BME280;18597;48.328;7.932;2023-05-20T10:32:52;99254.69;;;26.07;35.47
32083;BME280;18597;48.328;7.932;2023-05-20T10:35:23;99242.28;;;26.05;37.57
32083;BME280;18597;48.328;7.932;2023-05-20T10:38:04;99246.56;;;26.12;37.33
32083;BME280;18597;48.328;7.932;2023-05-20T10:40:31;99236.50;;;26.29;37.98
32083;BME280;18597;48.328;7.932;2023-05-20T10:43:09;99231.88;;;26.87;36.91
32083;BME280;18597;48.328;7.932;2023-05-20T10:45:48;99234.13;;;25.81;38.21
32083;BME280;18597;48.328;7.932;2023-05-20T10:48:31;99230.25;;;26.06;38.41
32083;BME280;18597;48.328;7.932;2023-05-20T10:51:00;99228.88;;;26.72;37.37
32083;BME280;18597;48.328;7.932;2023-05-20T10:53:37;99213.22;;;27.01;35.23
32083;BME280;18597;48.328;7.932;2023-05-20T10:56:04;99216.91;;;27.23;37.11
32083;BME280;18597;48.328;7.932;2023-05-20T10:58:38;99219.13;;;27.26;38.01
32083;BME280;18597;48.328;7.932;2023-05-20T11:01:04;99218.13;;;27.32;36.79
32083;BME280;18597;48.328;7.932;2023-05-20T11:03:33;99215.19;;;27.56;36.39
32083;BME280;18597;48.328;7.932;2023-05-20T11:05:59;99211.56;;;27.67;36.03
32083;BME280;18597;48.328;7.932;2023-05-20T11:08:29;99210.47;;;27.68;36.25
32083;BME280;18597;48.328;7.932;2023-05-20T11:10:56;99204.19;;;27.51;35.75
32083;BME280;18597;48.328;7.932;2023-05-20T11:13:22;99213.56;;;27.38;36.41
32083;BME280;18597;48.328;7.932;2023-05-20T11:15:48;99208.41;;;27.25;36.80
32083;BME280;18597;48.328;7.932;2023-05-20T11:18:14;99207.13;;;27.66;36.55
32083;BME280;18597;48.328;7.932;2023-05-20T11:20:40;99203.66;;;27.92;36.70
32083;BME280;18597;48.328;7.932;2023-05-20T11:23:12;99205.25;;;28.54;36.01
32083;BME280;18597;48.328;7.932;2023-05-20T11:25:38;99200.91;;;27.54;35.56
32083;BME280;18597;48.328;7.932;2023-05-20T11:28:08;99199.25;;;27.70;35.06
32083;BME280;18597;48.328;7.932;2023-05-20T11:30:34;99204.13;;;27.84;35.21
32083;BME280;18597;48.328;7.932;2023-05-20T11:33:02;99201.31;;;27.62;35.29
32083;BME280;18597;48.328;7.932;2023-05-20T11:35:30;99199.47;;;27.29;35.84
32083;BME280;18597;48.328;7.932;2023-05-20T11:38:05;99186.84;;;27.50;35.36
32083;BME280;18597;48.328;7.932;2023-05-20T11:40:32;99181.25;;;28.01;35.19
32083;BME280;18597;48.328;7.932;2023-05-20T11:43:01;99180.88;;;28.63;34.78
32083;BME280;18597;48.328;7.932;2023-05-20T11:45:37;99170.50;;;28.97;34.73
32083;BME280;18597;48.328;7.932;2023-05-20T11:48:04;99175.34;;;28.90;34.59
32083;BME280;18597;48.328;7.932;2023-05-20T11:50:39;99181.75;;;28.68;34.82
32083;BME280;18597;48.328;7.932;2023-05-20T11:53:09;99177.50;;;28.56;35.11
32083;BME280;18597;48.328;7.932;2023-05-20T11:55:57;99184.56;;;28.46;34.48
32083;BME280;18597;48.328;7.932;2023-05-20T11:58:28;99175.13;;;28.64;33.87
32083;BME280;18597;48.328;7.932;2023-05-20T12:00:54;99164.09;;;28.59;34.15
32083;BME280;18597;48.328;7.932;2023-05-20T12:03:20;99160.88;;;28.67;32.99
32083;BME280;18597;48.328;7.932;2023-05-20T12:05:47;99157.44;;;28.55;32.59
32083;BME280;18597;48.328;7.932;2023-05-20T12:08:13;99148.38;;;28.55;32.56
32083;BME280;18597;48.328;7.932;2023-05-20T12:10:39;99160.69;;;28.79;32.45
32083;BME280;18597;48.328;7.932;2023-05-20T12:13:06;99165.00;;;28.70;33.03
32083;BME280;18597;48.328;7.932;2023-05-20T12:15:34;99163.41;;;28.74;33.83
32083;BME280;18597;48.328;7.932;2023-05-20T12:18:01;99151.97;;;28.87;33.42
32083;BME280;18597;48.328;7.932;2023-05-20T12:20:27;99139.09;;;29.30;32.77
32083;BME280;18597;48.328;7.932;2023-05-20T12:22:53;99139.47;;;29.44;32.69
32083;BME280;18597;48.328;7.932;2023-05-20T12:25:19;99134.41;;;29.25;32.36
32083;BME280;18597;48.328;7.932;2023-05-20T12:27:47;99137.88;;;29.11;32.34
32083;BME280;18597;48.328;7.932;2023-05-20T12:30:17;99139.03;;;29.62;32.05
32083;BME280;18597;48.328;7.932;2023-05-20T12:32:45;99136.09;;;29.79;31.77
32083;BME280;18597;48.328;7.932;2023-05-20T12:35:12;99126.41;;;29.66;32.46
32083;BME280;18597;48.328;7.932;2023-05-20T12:37:39;99120.63;;;29.63;31.34
32083;BME280;18597;48.328;7.932;2023-05-20T12:40:08;99119.56;;;29.26;31.00
32083;BME280;18597;48.328;7.932;2023-05-20T12:42:37;99123.50;;;28.71;31.50
32083;BME280;18597;48.328;7.932;2023-05-20T12:45:04;99134.84;;;28.26;32.38
32083;BME280;18597;48.328;7.932;2023-05-20T12:47:32;99120.75;;;27.90;32.72
32083;BME280;18597;48.328;7.932;2023-05-20T12:49:59;99117.50;;;27.55;32.98
32083;BME280;18597;48.328;7.932;2023-05-20T12:52:25;99117.31;;;27.40;33.21
32083;BME280;18597;48.328;7.932;2023-05-20T12:54:54;99108.16;;;27.73;32.66
32083;BME280;18597;48.328;7.932;2023-05-20T12:57:21;99109.88;;;28.01;33.84
32083;BME280;18597;48.328;7.932;2023-05-20T12:59:47;99111.16;;;27.93;34.20
32083;BME280;18597;48.328;7.932;2023-05-20T13:02:13;99110.78;;;27.84;34.74
32083;BME280;18597;48.328;7.932;2023-05-20T13:04:38;99107.13;;;28.01;34.89